Time,TemperatureF,DewpointF,PressureIn,WindDirection,WindDirectionDegrees,WindSpeedMPH,WindSpeedGustMPH,Humidity,HourlyPrecipIn,Conditions,Clouds,dailyrainin,SoftwareType,DateUTC
2013-02-21 02:00:00,47.0,42.0,30.14,West,260,5.0,5.0,83,-99.99,,,-99.99,,2013-02-21 07:00:00,
2013-02-21 02:21:00,47.0,42.0,30.14,West,260,5.0,5.0,83,-99.99,,,-99.99,,2013-02-21 07:21:00,
2013-02-21 02:31:00,47.0,42.0,30.14,West,260,5.0,5.0,83,-99.99,,,-99.99,,2013-02-21 07:31:00,
2013-02-21 02:41:00,47.0,42.0,30.14,West,260,5.0,5.0,83,-99.99,,,-99.99,,2013-02-21 07:41:00,
2013-02-21 02:52:00,47.0,42.0,30.14,West,260,5.0,5.0,83,-99.99,,,-99.99,,2013-02-21 07:52:00,
2013-02-21 03:00:00,47.0,42.0,30.13,West,270,5.0,5.0,80,-99.99,,,-99.99,,2013-02-21 08:00:00,
2013-02-21 03:21:00,47.0,42.0,30.13,West,270,5.0,5.0,80,-99.99,,,-99.99,,2013-02-21 08:21:00,
2013-02-21 03:31:00,47.0,42.0,30.13,West,270,5.0,5.0,80,-99.99,,,-99.99,,2013-02-21 08:31:00,
2013-02-21 03:41:00,47.0,42.0,30.13,West,270,5.0,5.0,80,-99.99,,,-99.99,,2013-02-21 08:41:00,
2013-02-21 03:51:00,47.0,42.0,30.13,West,270,5.0,5.0,80,-99.99,,,-99.99,,2013-02-21 08:51:00,
2013-02-21 04:00:00,48.0,43.0,30.11,West,270,3.0,3.0,84,-99.99,,,-99.99,,2013-02-21 09:00:00,
2013-02-21 04:22:00,48.0,43.0,30.11,West,270,3.0,3.0,84,-99.99,,,-99.99,,2013-02-21 09:22:00,
2013-02-21 04:31:00,48.0,43.0,30.11,West,270,3.0,3.0,84,-99.99,,,-99.99,,2013-02-21 09:31:00,
2013-02-21 04:41:00,48.0,43.0,30.11,West,270,3.0,3.0,84,-99.99,,,-99.99,,2013-02-21 09:41:00,
2013-02-21 04:51:00,48.0,43.0,30.11,West,270,3.0,3.0,84,-99.99,,,-99.99,,2013-02-21 09:51:00,
2013-02-21 07:00:00,45.0,43.0,30.15,NNW,340,5.0,5.0,92,-99.99,,,-99.99,,2013-02-21 12:00:00,
2013-02-21 07:21:00,45.0,43.0,30.15,NNW,340,5.0,5.0,92,-99.99,,,-99.99,,2013-02-21 12:21:00,
2013-02-21 07:32:00,45.0,43.0,30.15,NNW,340,5.0,5.0,92,-99.99,,,-99.99,,2013-02-21 12:32:00,
2013-02-21 07:42:00,45.0,43.0,30.15,NNW,340,5.0,5.0,92,-99.99,,,-99.99,,2013-02-21 12:42:00,
2013-02-21 07:52:00,45.0,43.0,30.15,NNW,340,5.0,5.0,92,-99.99,,,-99.99,,2013-02-21 12:52:00,
2013-02-21 08:00:00,47.0,45.0,30.17,NNW,340,5.0,6.0,92,-99.99,,,-99.99,,2013-02-21 13:00:00,
2013-02-21 08:22:00,47.0,45.0,30.17,NNW,340,5.0,6.0,92,-99.99,,,-99.99,,2013-02-21 13:22:00,
2013-02-21 08:31:00,47.0,45.0,30.17,NNW,340,5.0,6.0,92,-99.99,,,-99.99,,2013-02-21 13:31:00,
2013-02-21 08:41:00,47.0,45.0,30.17,NNW,340,5.0,6.0,92,-99.99,,,-99.99,,2013-02-21 13:41:00,
2013-02-21 08:51:00,47.0,45.0,30.17,NNW,340,5.0,6.0,92,-99.99,,,-99.99,,2013-02-21 13:51:00,
2013-02-21 09:00:00,48.0,42.0,30.19,North,10,8.0,10.0,80,-99.99,,,-99.99,,2013-02-21 14:00:00,
2013-02-21 09:21:00,48.0,42.0,30.19,North,10,8.0,10.0,80,-99.99,,,-99.99,,2013-02-21 14:21:00,
2013-02-21 09:31:00,48.0,42.0,30.19,North,10,8.0,10.0,80,-99.99,,,-99.99,,2013-02-21 14:31:00,
2013-02-21 09:41:00,48.0,42.0,30.19,North,10,8.0,10.0,80,-99.99,,,-99.99,,2013-02-21 14:41:00,
2013-02-21 09:52:00,48.0,42.0,30.19,North,10,8.0,10.0,80,-99.99,,,-99.99,,2013-02-21 14:52:00,
2013-02-21 10:00:00,49.0,40.0,30.20,NNE,30,8.0,10.0,72,-99.99,,,-99.99,,2013-02-21 15:00:00,
2013-02-21 10:21:00,49.0,40.0,30.20,NNE,30,8.0,10.0,72,-99.99,,,-99.99,,2013-02-21 15:21:00,
2013-02-21 10:31:00,49.0,40.0,30.20,NNE,30,8.0,10.0,72,-99.99,,,-99.99,,2013-02-21 15:31:00,
2013-02-21 10:41:00,49.0,40.0,30.20,NNE,30,8.0,10.0,72,-99.99,,,-99.99,,2013-02-21 15:41:00,
2013-02-21 10:51:00,49.0,40.0,30.20,NNE,30,8.0,10.0,72,-99.99,,,-99.99,,2013-02-21 15:51:00,
2013-02-21 11:00:00,51.0,43.0,30.21,ENE,60,11.0,13.0,74,-99.99,,,-99.99,,2013-02-21 16:00:00,
2013-02-21 11:21:00,51.0,43.0,30.21,ENE,60,11.0,13.0,74,-99.99,,,-99.99,,2013-02-21 16:21:00,
2013-02-21 11:31:00,51.0,43.0,30.21,ENE,60,11.0,13.0,74,-99.99,,,-99.99,,2013-02-21 16:31:00,
2013-02-21 11:41:00,51.0,43.0,30.21,ENE,60,11.0,13.0,74,-99.99,,,-99.99,,2013-02-21 16:41:00,
2013-02-21 11:51:00,51.0,43.0,30.21,ENE,60,11.0,13.0,74,-99.99,,,-99.99,,2013-02-21 16:51:00,
2013-02-21 12:00:00,52.0,42.0,30.21,ENE,60,14.0,15.0,67,-99.99,,,-99.99,,2013-02-21 17:00:00,
2013-02-21 12:21:00,52.0,42.0,30.21,ENE,60,14.0,15.0,67,-99.99,,,-99.99,,2013-02-21 17:21:00,
2013-02-21 12:32:00,52.0,42.0,30.21,ENE,60,14.0,15.0,67,-99.99,,,-99.99,,2013-02-21 17:32:00,
2013-02-21 12:41:00,52.0,42.0,30.21,ENE,60,14.0,15.0,67,-99.99,,,-99.99,,2013-02-21 17:41:00,
2013-02-21 12:51:00,52.0,42.0,30.21,ENE,60,14.0,15.0,67,-99.99,,,-99.99,,2013-02-21 17:51:00,
2013-02-21 13:00:00,52.0,43.0,30.18,ENE,70,14.0,16.0,69,-99.99,,,-99.99,,2013-02-21 18:00:00,
2013-02-21 13:21:00,52.0,43.0,30.18,ENE,70,14.0,16.0,69,-99.99,,,-99.99,,2013-02-21 18:21:00,
2013-02-21 13:31:00,52.0,43.0,30.18,ENE,70,14.0,16.0,69,-99.99,,,-99.99,,2013-02-21 18:31:00,
2013-02-21 13:42:00,52.0,43.0,30.18,ENE,70,14.0,16.0,69,-99.99,,,-99.99,,2013-02-21 18:42:00,
2013-02-21 13:51:00,52.0,43.0,30.18,ENE,70,14.0,16.0,69,-99.99,,,-99.99,,2013-02-21 18:51:00,
2013-02-21 14:00:00,52.0,42.0,30.16,ENE,70,13.0,15.0,67,-99.99,,,-99.99,,2013-02-21 19:00:00,
2013-02-21 14:21:00,52.0,42.0,30.16,ENE,70,13.0,15.0,67,-99.99,,,-99.99,,2013-02-21 19:21:00,
2013-02-21 14:31:00,52.0,42.0,30.16,ENE,70,13.0,15.0,67,-99.99,,,-99.99,,2013-02-21 19:31:00,
2013-02-21 14:41:00,52.0,42.0,30.16,ENE,70,13.0,15.0,67,-99.99,,,-99.99,,2013-02-21 19:41:00,
2013-02-21 14:51:00,52.0,42.0,30.16,ENE,70,13.0,15.0,67,-99.99,,,-99.99,,2013-02-21 19:51:00,
2013-02-21 15:00:00,53.0,42.0,30.14,East,90,11.0,13.0,66,-99.99,,,-99.99,,2013-02-21 20:00:00,
2013-02-21 15:21:00,53.0,42.0,30.14,East,90,11.0,13.0,66,-99.99,,,-99.99,,2013-02-21 20:21:00,
2013-02-21 15:31:00,53.0,42.0,30.14,East,90,11.0,13.0,66,-99.99,,,-99.99,,2013-02-21 20:31:00,
2013-02-21 15:41:00,53.0,42.0,30.14,East,90,11.0,13.0,66,-99.99,,,-99.99,,2013-02-21 20:41:00,
2013-02-21 15:52:00,53.0,42.0,30.14,East,90,11.0,13.0,66,-99.99,,,-99.99,,2013-02-21 20:52:00,
2013-02-21 16:00:00,53.0,42.0,30.12,East,90,11.0,13.0,67,-99.99,,,-99.99,,2013-02-21 21:00:00,
2013-02-21 16:21:00,53.0,42.0,30.12,East,90,11.0,13.0,67,-99.99,,,-99.99,,2013-02-21 21:21:00,
2013-02-21 16:31:00,53.0,42.0,30.12,East,90,11.0,13.0,67,-99.99,,,-99.99,,2013-02-21 21:31:00,
2013-02-21 16:41:00,53.0,42.0,30.12,East,90,11.0,13.0,67,-99.99,,,-99.99,,2013-02-21 21:41:00,
2013-02-21 16:51:00,53.0,42.0,30.12,East,90,11.0,13.0,67,-99.99,,,-99.99,,2013-02-21 21:51:00,
2013-02-21 17:00:00,53.0,44.0,30.13,East,90,10.0,10.0,71,-99.99,,,-99.99,,2013-02-21 22:00:00,
2013-02-21 17:21:00,53.0,44.0,30.13,East,90,10.0,10.0,71,-99.99,,,-99.99,,2013-02-21 22:21:00,
2013-02-21 17:31:00,53.0,44.0,30.13,East,90,10.0,10.0,71,-99.99,,,-99.99,,2013-02-21 22:31:00,
2013-02-21 17:41:00,53.0,44.0,30.13,East,90,10.0,10.0,71,-99.99,,,-99.99,,2013-02-21 22:41:00,
2013-02-21 17:51:00,53.0,44.0,30.13,East,90,10.0,10.0,71,-99.99,,,-99.99,,2013-02-21 22:51:00,
2013-02-21 18:00:00,54.0,47.0,30.13,East,90,10.0,11.0,79,-99.99,,,-99.99,,2013-02-21 23:00:00,
2013-02-21 18:21:00,54.0,47.0,30.13,East,90,10.0,11.0,79,-99.99,,,-99.99,,2013-02-21 23:21:00,
2013-02-21 18:31:00,54.0,47.0,30.13,East,90,10.0,11.0,79,-99.99,,,-99.99,,2013-02-21 23:31:00,
2013-02-21 18:41:00,54.0,47.0,30.13,East,90,10.0,11.0,79,-99.99,,,-99.99,,2013-02-21 23:41:00,
2013-02-21 18:52:00,54.0,47.0,30.13,East,90,10.0,11.0,79,-99.99,,,-99.99,,2013-02-21 23:52:00,
2013-02-21 19:00:00,54.0,49.0,30.13,East,90,10.0,11.0,81,-99.99,,,-99.99,,2013-02-22 00:00:00,
2013-02-21 19:21:00,54.0,49.0,30.13,East,90,10.0,11.0,81,-99.99,,,-99.99,,2013-02-22 00:21:00,
2013-02-21 19:31:00,54.0,49.0,30.13,East,90,10.0,11.0,81,-99.99,,,-99.99,,2013-02-22 00:31:00,
2013-02-21 19:41:00,54.0,49.0,30.13,East,90,10.0,11.0,81,-99.99,,,-99.99,,2013-02-22 00:41:00,
2013-02-21 19:51:00,54.0,49.0,30.13,East,90,10.0,11.0,81,-99.99,,,-99.99,,2013-02-22 00:51:00,
2013-02-21 20:00:00,55.0,51.0,30.14,East,100,9.0,10.0,87,-99.99,,,-99.99,,2013-02-22 01:00:00,
2013-02-21 20:21:00,55.0,51.0,30.14,East,100,9.0,10.0,87,-99.99,,,-99.99,,2013-02-22 01:21:00,
2013-02-21 20:32:00,55.0,51.0,30.14,East,100,9.0,10.0,87,-99.99,,,-99.99,,2013-02-22 01:32:00,
2013-02-21 20:41:00,55.0,51.0,30.14,East,100,9.0,10.0,87,-99.99,,,-99.99,,2013-02-22 01:41:00,
2013-02-21 20:51:00,55.0,51.0,30.14,East,100,9.0,10.0,87,-99.99,,,-99.99,,2013-02-22 01:51:00,
2013-02-21 21:00:00,55.0,52.0,30.15,East,80,9.0,10.0,90,-99.99,,,-99.99,,2013-02-22 02:00:00,
2013-02-21 21:21:00,55.0,52.0,30.15,East,80,9.0,10.0,90,-99.99,,,-99.99,,2013-02-22 02:21:00,
2013-02-21 21:31:00,55.0,52.0,30.15,East,80,9.0,10.0,90,-99.99,,,-99.99,,2013-02-22 02:31:00,
2013-02-21 21:41:00,55.0,52.0,30.15,East,80,9.0,10.0,90,-99.99,,,-99.99,,2013-02-22 02:41:00,
2013-02-21 21:52:00,55.0,52.0,30.15,East,80,9.0,10.0,90,-99.99,,,-99.99,,2013-02-22 02:52:00,
2013-02-21 22:00:00,54.0,53.0,30.16,ENE,60,11.0,13.0,96,-99.99,,,-99.99,,2013-02-22 03:00:00,
2013-02-21 22:21:00,54.0,53.0,30.16,ENE,60,11.0,13.0,96,-99.99,,,-99.99,,2013-02-22 03:21:00,
2013-02-21 22:31:00,54.0,53.0,30.16,ENE,60,11.0,13.0,96,-99.99,,,-99.99,,2013-02-22 03:31:00,
2013-02-21 22:41:00,54.0,53.0,30.16,ENE,60,11.0,13.0,96,-99.99,,,-99.99,,2013-02-22 03:41:00,
2013-02-21 22:51:00,54.0,53.0,30.16,ENE,60,11.0,13.0,96,-99.99,,,-99.99,,2013-02-22 03:51:00,
2013-02-21 23:00:00,55.0,53.0,30.17,ENE,70,13.0,15.0,93,-99.99,,,-99.99,,2013-02-22 04:00:00,
2013-02-21 23:21:00,55.0,53.0,30.17,ENE,70,13.0,15.0,93,-99.99,,,-99.99,,2013-02-22 04:21:00,
2013-02-21 23:31:00,55.0,53.0,30.17,ENE,70,13.0,15.0,93,-99.99,,,-99.99,,2013-02-22 04:31:00,
2013-02-21 23:41:00,55.0,53.0,30.17,ENE,70,13.0,15.0,93,-99.99,,,-99.99,,2013-02-22 04:41:00,
2013-02-21 23:51:00,55.0,53.0,30.17,ENE,70,13.0,15.0,93,-99.99,,,-99.99,,2013-02-22 04:51:00,